Time;durP1;ratioP1;P1;durP2;ratioP2;P2;SDS_P1;SDS_P2;PMS_P1;PMS_P2;Temp;Humidity;BMP_temperature;BMP_pressure;BME280_temperature;BME280_humidity;BME280_pressure;Samples;Min_cycle;Max_cycle;Signal;HPM_P1;HPM_P2
2022/01/20 00:04:25;;;;;;;39.57;19.27;;;;;;;-2.73;66.43;101047.91;18622118;31;20096;-67
2022/01/20 00:45:32;;;;;;;38.63;18.57;;;;;;;-3.09;65.88;101035.50;18620022;31;20084;-67
2022/01/20 00:55:35;;;;;;;37.27;18.83;;;;;;;-3.11;66.21;101042.19;18619736;31;20098;-67
2022/01/20 01:05:51;;;;;;;40.57;17.30;;;;;;;-3.14;67.01;101059.84;18619064;31;20363;-67
2022/01/20 01:15:54;;;;;;;45.87;18.87;;;;;;;-3.22;64.95;101073.03;18627122;31;20132;-67
2022/01/20 01:25:59;;;;;;;45.03;18.87;;;;;;;-3.40;66.82;101024.19;18628405;31;20088;-67
2022/01/20 01:36:04;;;;;;;42.30;22.00;;;;;;;-3.04;69.22;101026.44;18627842;31;20106;-68
2022/01/20 01:46:08;;;;;;;45.37;21.50;;;;;;;-2.52;69.36;101013.44;18627138;31;20462;-68
2022/01/20 01:56:11;;;;;;;47.87;22.80;;;;;;;-1.90;69.04;100989.75;18627487;31;20087;-67
2022/01/20 02:06:39;;;;;;;41.13;18.20;;;;;;;-1.61;68.58;100967.50;18627159;31;20128;-67
2022/01/20 02:27:05;;;;;;;38.67;17.47;;;;;;;-0.64;68.67;100877.00;18626006;31;20080;-68
2022/01/20 02:37:12;;;;;;;29.80;15.50;;;;;;;-1.12;69.14;100866.84;18626688;31;20181;-68
2022/01/20 02:47:16;;;;;;;31.70;16.10;;;;;;;-0.95;68.66;100848.88;18626285;31;20076;-67
2022/01/20 02:57:19;;;;;;;38.63;20.83;;;;;;;-0.87;68.05;100857.84;18625546;31;20487;-67
2022/01/20 03:07:24;;;;;;;35.10;16.07;;;;;;;-0.79;68.16;100835.19;18625184;31;20087;-68
2022/01/20 03:17:27;;;;;;;30.17;15.97;;;;;;;-0.49;66.68;100823.03;18625056;31;20411;-67
2022/01/20 03:27:31;;;;;;;46.73;23.37;;;;;;;-0.85;67.34;100821.25;18624708;31;20587;-68
2022/01/20 03:37:35;;;;;;;38.87;21.47;;;;;;;-1.04;68.82;100808.31;18623700;31;20101;-67
2022/01/20 03:47:39;;;;;;;33.50;15.63;;;;;;;-1.04;68.39;100783.56;18624124;31;20110;-68
2022/01/20 03:57:42;;;;;;;33.10;15.67;;;;;;;-0.95;67.22;100772.00;18623448;31;20107;-68
2022/01/20 04:07:46;;;;;;;30.47;14.83;;;;;;;-1.50;67.96;100760.69;18622976;31;20142;-68
2022/01/20 04:17:55;;;;;;;37.30;16.53;;;;;;;-1.59;66.92;100755.94;18622337;31;20111;-68
2022/01/20 04:27:59;;;;;;;34.70;15.57;;;;;;;-1.57;67.80;100739.88;18621796;31;20087;-67
2022/01/20 04:38:02;;;;;;;36.37;15.90;;;;;;;-1.78;70.13;100761.78;18621162;31;20084;-68
2022/01/20 04:48:23;;;;;;;37.07;15.47;;;;;;;-1.70;68.16;100757.94;18626600;31;20134;-68
2022/01/20 04:58:27;;;;;;;39.40;16.85;;;;;;;-2.17;69.57;100775.03;18629273;31;20123;-68
2022/01/20 05:08:32;;;;;;;37.10;18.03;;;;;;;-2.28;68.93;100767.62;18628983;31;20109;-67
2022/01/20 05:18:35;;;;;;;36.43;17.83;;;;;;;-2.23;67.97;100765.34;18629118;31;20352;-67
2022/01/20 05:28:39;;;;;;;53.33;23.37;;;;;;;-2.70;68.32;100772.97;18628637;31;20084;-68
2022/01/20 05:38:42;;;;;;;64.30;30.67;;;;;;;-2.95;69.67;100775.78;18628202;31;20487;-68
2022/01/20 05:48:48;;;;;;;62.87;27.97;;;;;;;-2.63;69.33;100760.53;18629514;31;20105;-67
2022/01/20 05:58:51;;;;;;;58.37;29.40;;;;;;;-2.40;69.02;100744.81;18628400;31;20084;-68
2022/01/20 06:08:56;;;;;;;69.77;35.10;;;;;;;-2.06;67.20;100725.31;18628978;31;20084;-68
2022/01/20 06:18:59;;;;;;;106.20;42.33;;;;;;;-2.44;67.98;100734.31;18628461;31;20440;-67
2022/01/20 06:29:03;;;;;;;117.10;45.60;;;;;;;-2.32;68.13;100718.78;18628190;31;20102;-68
2022/01/20 06:39:06;;;;;;;72.10;35.80;;;;;;;-2.54;69.37;100707.38;18628053;31;20083;-68
2022/01/20 06:49:11;;;;;;;61.17;27.83;;;;;;;-2.11;69.82;100726.78;18627347;31;20084;-68
2022/01/20 06:59:16;;;;;;;85.17;42.20;;;;;;;-1.62;70.08;100725.06;18627532;31;20408;-68
2022/01/20 07:09:20;;;;;;;72.40;33.77;;;;;;;-1.22;68.98;100704.06;18624476;31;20105;-68
2022/01/20 07:19:24;;;;;;;47.03;23.87;;;;;;;-1.29;70.47;100714.78;18626111;31;20084;-68
2022/01/20 07:29:28;;;;;;;42.07;17.10;;;;;;;-0.39;70.63;100705.47;18626349;31;20167;-68
2022/01/20 07:39:31;;;;;;;36.35;17.58;;;;;;;0.34;69.95;100678.84;18625949;31;20088;-68
2022/01/20 07:49:37;;;;;;;34.10;16.58;;;;;;;1.15;68.17;100686.47;18622310;31;94859;-68
2022/01/20 07:59:40;;;;;;;37.15;17.08;;;;;;;1.59;67.09;100665.91;18624523;31;20179;-68
2022/01/20 08:09:44;;;;;;;35.00;16.70;;;;;;;2.24;66.15;100665.75;18623451;31;20097;-68
2022/01/20 08:19:58;;;;;;;28.40;15.20;;;;;;;2.66;65.50;100669.78;18627316;31;20106;-68
2022/01/20 08:30:03;;;;;;;33.38;18.12;;;;;;;3.07;64.92;100677.16;18631957;31;20115;-68
2022/01/20 08:40:09;;;;;;;31.52;15.32;;;;;;;3.47;63.67;100672.41;18632137;31;20140;-68
2022/01/20 08:50:13;;;;;;;31.20;14.63;;;;;;;3.67;63.42;100672.16;18631160;31;20459;-71
2022/01/20 09:00:21;;;;;;;27.17;14.82;;;;;;;4.16;62.34;100634.81;18631365;31;20112;-72
2022/01/20 09:10:26;;;;;;;53.75;29.48;;;;;;;4.48;63.04;100657.22;18630837;31;20718;-72
2022/01/20 09:20:29;;;;;;;32.03;17.77;;;;;;;3.89;64.19;100687.44;18630493;31;20180;-72
2022/01/20 09:30:35;;;;;;;22.55;11.85;;;;;;;3.81;66.23;100670.00;18629106;31;20353;-72
2022/01/20 09:40:39;;;;;;;15.52;8.15;;;;;;;3.92;67.86;100666.00;18630061;31;20132;-72
2022/01/20 09:50:46;;;;;;;11.75;6.30;;;;;;;5.08;67.45;100670.81;18628918;31;20140;-72
2022/01/20 10:00:51;;;;;;;14.60;7.30;;;;;;;5.37;67.91;100665.47;18629081;31;20468;-72
2022/01/20 10:10:57;;;;;;;16.30;6.90;;;;;;;5.79;66.89;100650.84;18628940;31;20093;-72
2022/01/20 10:21:01;;;;;;;12.32;6.37;;;;;;;5.86;68.24;100636.31;18628363;31;20166;-71
2022/01/20 10:31:06;;;;;;;13.80;6.45;;;;;;;6.11;66.72;100637.69;18628122;31;20084;-72
2022/01/20 10:41:10;;;;;;;11.63;5.75;;;;;;;6.07;67.15;100609.09;18627816;31;20104;-73
2022/01/20 10:51:18;;;;;;;8.77;4.07;;;;;;;5.95;66.08;100597.63;18626775;31;20338;-72
2022/01/20 11:01:21;;;;;;;8.90;4.18;;;;;;;5.97;66.10;100562.28;18627395;31;20084;-73
2022/01/20 11:11:26;;;;;;;7.10;3.80;;;;;;;6.40;64.66;100553.56;18628011;31;20088;-73
2022/01/20 11:21:29;;;;;;;10.18;4.28;;;;;;;6.68;63.06;100530.66;18626488;31;20083;-72
2022/01/20 11:31:35;;;;;;;9.95;4.37;;;;;;;7.08;61.55;100520.03;18626065;31;20233;-73
2022/01/20 11:41:46;;;;;;;10.45;4.10;;;;;;;7.23;61.93;100498.59;18625748;31;20091;-73
2022/01/20 11:51:52;;;;;;;10.85;5.37;;;;;;;7.43;60.77;100484.97;18624492;31;20088;-73
2022/01/20 12:02:03;;;;;;;13.40;6.10;;;;;;;7.23;60.97;100485.59;18624985;31;20463;-73
2022/01/20 12:12:25;;;;;;;10.38;4.32;;;;;;;7.79;57.45;100442.06;18622692;31;20107;-73
2022/01/20 12:22:28;;;;;;;7.07;3.03;;;;;;;7.63;55.55;100426.31;18622656;31;20121;-75
2022/01/20 12:32:32;;;;;;;6.82;3.22;;;;;;;7.63;52.99;100405.53;18623011;31;20084;-74
2022/01/20 12:42:37;;;;;;;8.18;3.20;;;;;;;8.18;51.92;100404.28;18621992;31;20080;-73
2022/01/20 12:52:48;;;;;;;9.95;3.90;;;;;;;8.36;50.78;100387.06;18620976;31;20096;-74
2022/01/20 13:02:51;;;;;;;11.15;4.62;;;;;;;8.49;52.41;100361.12;18622126;31;20088;-74
2022/01/20 13:12:56;;;;;;;8.32;3.85;;;;;;;8.27;51.85;100350.59;18630731;31;20333;-73
2022/01/20 13:23:02;;;;;;;8.77;4.03;;;;;;;8.35;52.15;100359.31;18630172;31;20080;-73
2022/01/20 13:33:08;;;;;;;11.38;4.35;;;;;;;7.87;52.92;100341.66;18629943;31;20090;-75
2022/01/20 13:53:36;;;;;;;;;;;;;;;7.85;51.60;100319.97;18629139;31;20139;-75
2022/01/20 14:03:41;;;;;;;6.07;3.17;;;;;;;7.66;50.14;100305.97;18628326;31;19992;-75
2022/01/20 14:13:45;;;;;;;7.15;2.80;;;;;;;7.46;50.10;100305.78;18628173;31;20098;-75
2022/01/20 14:23:48;;;;;;;10.95;3.65;;;;;;;7.59;49.11;100281.66;18627760;31;20119;-74
2022/01/20 14:33:52;;;;;;;7.57;3.08;;;;;;;7.45;48.58;100270.28;18625111;31;20088;-74
2022/01/20 14:43:55;;;;;;;5.53;2.30;;;;;;;7.28;49.39;100260.59;18627513;31;20107;-75
2022/01/20 14:54:00;;;;;;;8.85;3.78;;;;;;;6.98;49.44;100258.59;18626534;31;20096;-74
2022/01/20 15:04:03;;;;;;;5.90;2.83;;;;;;;7.16;49.51;100258.78;18626788;31;20103;-73
2022/01/20 15:14:08;;;;;;;10.02;3.85;;;;;;;7.30;48.65;100251.13;18627363;31;20136;-74
2022/01/20 15:24:11;;;;;;;5.15;1.87;;;;;;;7.35;48.94;100244.22;18626895;31;20162;-74
2022/01/20 15:34:15;;;;;;;4.93;1.60;;;;;;;6.25;59.15;100412.41;18625202;31;20084;-76
2022/01/20 15:44:18;;;;;;;16.12;5.03;;;;;;;4.18;66.30;100464.34;18625778;31;20517;-75
2022/01/20 15:54:23;;;;;;;10.85;3.58;;;;;;;3.35;69.08;100419.13;18618895;31;20110;-73
2022/01/20 16:04:26;;;;;;;3.65;1.70;;;;;;;3.05;66.35;100450.13;18622206;31;20114;-74
2022/01/20 16:14:30;;;;;;;8.90;2.78;;;;;;;3.04;61.79;100470.72;18623922;31;20092;-75
2022/01/20 16:24:34;;;;;;;5.00;2.33;;;;;;;3.30;62.78;100471.47;18623454;31;20111;-74
2022/01/20 16:34:38;;;;;;;10.43;4.10;;;;;;;3.42;63.56;100472.66;18619810;31;20451;-74
2022/01/20 16:44:41;;;;;;;8.60;2.92;;;;;;;3.11;62.58;100484.69;18626551;31;20150;-74
2022/01/20 16:54:46;;;;;;;4.43;2.20;;;;;;;3.41;59.77;100471.75;18630370;31;20129;-74
2022/01/20 17:04:50;;;;;;;5.10;2.42;;;;;;;3.66;58.56;100487.94;18629408;31;20450;-75
2022/01/20 17:14:54;;;;;;;6.22;2.65;;;;;;;2.98;59.33;100511.81;18629564;31;20088;-74
2022/01/20 17:24:57;;;;;;;9.95;2.45;;;;;;;2.93;58.37;100521.97;18626266;31;20498;-75
2022/01/20 17:35:02;;;;;;;11.70;3.87;;;;;;;3.14;56.09;100503.69;18624440;31;20649;-75
2022/01/20 17:45:06;;;;;;;6.68;2.65;;;;;;;2.80;56.91;100543.91;18623918;31;20092;-75
2022/01/20 17:55:12;;;;;;;5.97;2.42;;;;;;;3.15;56.45;100563.91;18618078;31;20102;-76
2022/01/20 18:05:18;;;;;;;7.30;2.70;;;;;;;3.37;55.54;100573.16;18623484;31;20391;-75
2022/01/20 18:15:24;;;;;;;9.40;3.30;;;;;;;3.21;53.94;100596.75;18622468;31;20076;-75
2022/01/20 18:25:28;;;;;;;18.40;6.93;;;;;;;3.38;53.85;100620.50;18624530;31;20128;-75
2022/01/20 18:35:33;;;;;;;8.20;3.00;;;;;;;3.47;53.63;100625.97;18625307;31;20692;-75
2022/01/20 18:45:36;;;;;;;8.57;3.17;;;;;;;3.24;55.35;100599.44;18620822;31;20076;-74
2022/01/20 18:55:41;;;;;;;8.98;3.70;;;;;;;3.51;55.46;100571.00;18592485;31;20096;-75
2022/01/20 19:05:44;;;;;;;10.95;3.47;;;;;;;3.33;57.01;100641.00;18492003;32;20089;-75
2022/01/20 19:15:50;;;;;;;7.18;2.95;;;;;;;3.36;57.23;100645.38;18493758;32;20085;-74
2022/01/20 19:25:54;;;;;;;13.10;4.78;;;;;;;3.17;55.87;100674.06;18551493;31;20143;-74
2022/01/20 19:35:58;;;;;;;12.13;3.17;;;;;;;2.96;55.05;100702.59;18623321;31;20095;-74
2022/01/20 19:46:01;;;;;;;8.45;2.87;;;;;;;3.02;53.94;100719.97;18543856;31;20088;-75
2022/01/20 19:56:06;;;;;;;9.75;3.70;;;;;;;2.86;51.49;100727.19;18590484;31;20099;-74
2022/01/20 20:06:10;;;;;;;16.23;5.80;;;;;;;2.97;50.11;100740.44;18609341;31;20112;-74
2022/01/20 20:16:14;;;;;;;15.40;4.20;;;;;;;3.08;49.21;100738.25;18612189;31;20392;-75
2022/01/20 20:26:18;;;;;;;27.45;9.85;;;;;;;3.08;49.05;100745.09;18580318;31;20152;-75
2022/01/20 20:36:23;;;;;;;16.52;6.45;;;;;;;2.72;50.22;100761.94;18589361;31;20103;-75
2022/01/20 20:46:26;;;;;;;9.43;3.80;;;;;;;2.50;51.00;100767.16;18562982;31;20111;-75
2022/01/20 20:56:31;;;;;;;10.48;2.78;;;;;;;2.64;51.35;100757.38;18563144;32;20097;-74
2022/01/20 21:06:34;;;;;;;8.60;2.33;;;;;;;2.48;52.42;100747.34;18564605;32;20092;-74
2022/01/20 21:16:38;;;;;;;9.02;2.87;;;;;;;2.11;54.66;100775.16;18566107;32;20089;-74
2022/01/20 21:26:41;;;;;;;9.45;3.50;;;;;;;1.94;56.94;100789.97;18563693;32;20073;-74
2022/01/20 21:36:47;;;;;;;7.57;2.90;;;;;;;1.86;57.49;100791.38;18564936;32;20081;-73
2022/01/20 21:46:51;;;;;;;12.30;3.78;;;;;;;1.72;57.93;100768.53;18589602;31;20110;-73
2022/01/20 21:56:56;;;;;;;11.60;4.07;;;;;;;1.71;56.74;100782.22;18628335;31;20106;-73
2022/01/20 22:07:05;;;;;;;11.20;4.57;;;;;;;1.72;57.68;100780.53;18627083;31;20360;-73
2022/01/20 22:17:10;;;;;;;10.13;4.45;;;;;;;2.04;57.34;100770.59;18626933;31;20088;-73
2022/01/20 22:27:12;;;;;;;15.45;4.87;;;;;;;2.13;57.27;100760.62;18626219;31;20095;-70
2022/01/20 22:37:17;;;;;;;12.52;4.10;;;;;;;1.90;58.09;100772.66;18625922;31;20080;-71
2022/01/20 22:47:20;;;;;;;12.00;4.68;;;;;;;2.10;57.37;100762.25;18625962;31;20083;-70
2022/01/20 22:57:24;;;;;;;9.95;4.03;;;;;;;2.11;57.86;100772.59;18626271;31;20084;-70
2022/01/20 23:07:27;;;;;;;11.68;4.43;;;;;;;1.92;58.84;100763.28;18625829;31;20099;-70
2022/01/20 23:17:36;;;;;;;11.63;3.83;;;;;;;2.28;58.27;100765.53;18625217;31;20088;-70
2022/01/20 23:27:39;;;;;;;12.37;4.20;;;;;;;2.37;58.52;100780.44;18625047;31;20068;-71
2022/01/20 23:37:43;;;;;;;10.32;3.80;;;;;;;2.40;59.16;100762.50;18624813;31;20088;-71
2022/01/20 23:58:08;;;;;;;13.03;3.73;;;;;;;2.36;59.88;100750.34;18623913;31;20088;-71
